sensor_id;sensor_type;location;lat;lon;timestamp;P1;durP1;ratioP1;P2;durP2;ratioP2
34725;SDS011;20951;50.818;4.344;2023-02-22T00:00:40;94.20;;;40.08;;
34725;SDS011;20951;50.818;4.344;2023-02-22T00:03:11;87.82;;;38.40;;
34725;SDS011;20951;50.818;4.344;2023-02-22T00:05:49;97.13;;;38.58;;
34725;SDS011;20951;50.818;4.344;2023-02-22T00:08:20;93.25;;;39.75;;
34725;SDS011;20951;50.818;4.344;2023-02-22T00:10:48;90.22;;;38.78;;
34725;SDS011;20951;50.818;4.344;2023-02-22T00:13:17;91.80;;;40.45;;
34725;SDS011;20951;50.818;4.344;2023-02-22T00:15:47;95.65;;;38.70;;
34725;SDS011;20951;50.818;4.344;2023-02-22T00:18:14;94.22;;;40.22;;
34725;SDS011;20951;50.818;4.344;2023-02-22T00:20:42;88.88;;;38.17;;
34725;SDS011;20951;50.818;4.344;2023-02-22T00:23:13;98.25;;;38.00;;
34725;SDS011;20951;50.818;4.344;2023-02-22T00:25:44;91.32;;;39.03;;
34725;SDS011;20951;50.818;4.344;2023-02-22T00:28:12;84.78;;;37.95;;
34725;SDS011;20951;50.818;4.344;2023-02-22T00:30:39;86.75;;;37.55;;
34725;SDS011;20951;50.818;4.344;2023-02-22T00:33:09;90.93;;;38.88;;
34725;SDS011;20951;50.818;4.344;2023-02-22T00:35:36;92.72;;;38.75;;
34725;SDS011;20951;50.818;4.344;2023-02-22T00:38:03;79.25;;;37.03;;
34725;SDS011;20951;50.818;4.344;2023-02-22T00:40:30;85.00;;;37.28;;
34725;SDS011;20951;50.818;4.344;2023-02-22T00:42:59;70.10;;;34.78;;
34725;SDS011;20951;50.818;4.344;2023-02-22T00:45:27;85.20;;;37.78;;
34725;SDS011;20951;50.818;4.344;2023-02-22T00:47:54;80.82;;;35.75;;
34725;SDS011;20951;50.818;4.344;2023-02-22T00:50:23;76.10;;;35.50;;
34725;SDS011;20951;50.818;4.344;2023-02-22T00:52:51;80.95;;;36.20;;
34725;SDS011;20951;50.818;4.344;2023-02-22T00:55:18;76.50;;;36.20;;
34725;SDS011;20951;50.818;4.344;2023-02-22T00:57:46;73.95;;;36.60;;
34725;SDS011;20951;50.818;4.344;2023-02-22T01:00:35;75.90;;;36.78;;
34725;SDS011;20951;50.818;4.344;2023-02-22T01:03:06;72.07;;;34.67;;
34725;SDS011;20951;50.818;4.344;2023-02-22T01:05:34;70.88;;;34.33;;
34725;SDS011;20951;50.818;4.344;2023-02-22T01:08:02;74.80;;;36.05;;
34725;SDS011;20951;50.818;4.344;2023-02-22T01:10:30;75.90;;;36.45;;
34725;SDS011;20951;50.818;4.344;2023-02-22T01:12:57;74.88;;;36.40;;
34725;SDS011;20951;50.818;4.344;2023-02-22T01:15:26;70.13;;;35.03;;
34725;SDS011;20951;50.818;4.344;2023-02-22T01:17:55;72.03;;;35.53;;
34725;SDS011;20951;50.818;4.344;2023-02-22T01:20:22;69.05;;;35.13;;
34725;SDS011;20951;50.818;4.344;2023-02-22T01:22:50;71.40;;;35.53;;
34725;SDS011;20951;50.818;4.344;2023-02-22T01:25:19;67.05;;;33.95;;
34725;SDS011;20951;50.818;4.344;2023-02-22T01:27:47;63.40;;;33.05;;
34725;SDS011;20951;50.818;4.344;2023-02-22T01:30:14;60.58;;;33.30;;
34725;SDS011;20951;50.818;4.344;2023-02-22T01:32:41;58.10;;;31.98;;
34725;SDS011;20951;50.818;4.344;2023-02-22T01:35:10;59.47;;;32.50;;
34725;SDS011;20951;50.818;4.344;2023-02-22T01:37:38;58.13;;;31.80;;
34725;SDS011;20951;50.818;4.344;2023-02-22T01:40:06;56.42;;;31.92;;
34725;SDS011;20951;50.818;4.344;2023-02-22T01:42:34;55.55;;;31.50;;
34725;SDS011;20951;50.818;4.344;2023-02-22T01:48:14;58.63;;;30.83;;
34725;SDS011;20951;50.818;4.344;2023-02-22T01:50:58;54.25;;;30.27;;
34725;SDS011;20951;50.818;4.344;2023-02-22T01:53:45;51.22;;;29.33;;
34725;SDS011;20951;50.818;4.344;2023-02-22T01:56:15;49.55;;;28.48;;
34725;SDS011;20951;50.818;4.344;2023-02-22T01:58:44;52.03;;;29.50;;
34725;SDS011;20951;50.818;4.344;2023-02-22T02:01:15;49.50;;;28.63;;
34725;SDS011;20951;50.818;4.344;2023-02-22T02:03:42;47.83;;;28.83;;
34725;SDS011;20951;50.818;4.344;2023-02-22T02:06:11;45.00;;;28.35;;
34725;SDS011;20951;50.818;4.344;2023-02-22T02:08:44;48.45;;;28.65;;
34725;SDS011;20951;50.818;4.344;2023-02-22T02:11:18;45.20;;;27.45;;
34725;SDS011;20951;50.818;4.344;2023-02-22T02:13:48;42.97;;;26.10;;
34725;SDS011;20951;50.818;4.344;2023-02-22T02:16:15;46.22;;;27.67;;
34725;SDS011;20951;50.818;4.344;2023-02-22T02:18:42;44.38;;;26.98;;
34725;SDS011;20951;50.818;4.344;2023-02-22T02:32:20;39.55;;;24.08;;
34725;SDS011;20951;50.818;4.344;2023-02-22T02:38:17;42.08;;;25.75;;
34725;SDS011;20951;50.818;4.344;2023-02-22T02:43:31;42.78;;;26.13;;
34725;SDS011;20951;50.818;4.344;2023-02-22T02:46:29;43.78;;;25.95;;
34725;SDS011;20951;50.818;4.344;2023-02-22T02:49:03;41.70;;;26.40;;
34725;SDS011;20951;50.818;4.344;2023-02-22T02:54:01;39.97;;;24.05;;
34725;SDS011;20951;50.818;4.344;2023-02-22T02:56:28;40.58;;;25.65;;
34725;SDS011;20951;50.818;4.344;2023-02-22T02:58:55;40.45;;;24.23;;
34725;SDS011;20951;50.818;4.344;2023-02-22T03:04:55;39.92;;;24.80;;
34725;SDS011;20951;50.818;4.344;2023-02-22T03:07:16;38.15;;;24.20;;
34725;SDS011;20951;50.818;4.344;2023-02-22T03:12:44;37.78;;;23.98;;
34725;SDS011;20951;50.818;4.344;2023-02-22T03:15:31;38.33;;;23.52;;
34725;SDS011;20951;50.818;4.344;2023-02-22T03:26:12;34.38;;;21.95;;
34725;SDS011;20951;50.818;4.344;2023-02-22T03:28:43;36.45;;;23.70;;
34725;SDS011;20951;50.818;4.344;2023-02-22T03:31:13;36.83;;;24.40;;
34725;SDS011;20951;50.818;4.344;2023-02-22T03:34:48;36.15;;;23.23;;
34725;SDS011;20951;50.818;4.344;2023-02-22T03:36:57;37.83;;;24.73;;
34725;SDS011;20951;50.818;4.344;2023-02-22T03:39:27;38.13;;;23.80;;
34725;SDS011;20951;50.818;4.344;2023-02-22T03:41:57;35.33;;;23.58;;
34725;SDS011;20951;50.818;4.344;2023-02-22T03:44:33;39.13;;;23.75;;
34725;SDS011;20951;50.818;4.344;2023-02-22T03:47:03;38.65;;;24.45;;
34725;SDS011;20951;50.818;4.344;2023-02-22T03:49:38;36.33;;;23.88;;
34725;SDS011;20951;50.818;4.344;2023-02-22T03:52:08;37.58;;;23.70;;
34725;SDS011;20951;50.818;4.344;2023-02-22T03:54:37;36.20;;;23.42;;
34725;SDS011;20951;50.818;4.344;2023-02-22T03:57:05;33.15;;;21.80;;
34725;SDS011;20951;50.818;4.344;2023-02-22T03:59:36;35.90;;;23.48;;
34725;SDS011;20951;50.818;4.344;2023-02-22T04:02:03;32.50;;;22.42;;
34725;SDS011;20951;50.818;4.344;2023-02-22T04:04:29;35.70;;;22.33;;
34725;SDS011;20951;50.818;4.344;2023-02-22T04:06:55;32.97;;;21.52;;
34725;SDS011;20951;50.818;4.344;2023-02-22T04:09:21;33.50;;;22.17;;
34725;SDS011;20951;50.818;4.344;2023-02-22T04:11:47;34.03;;;22.15;;
34725;SDS011;20951;50.818;4.344;2023-02-22T04:14:13;32.58;;;20.23;;
34725;SDS011;20951;50.818;4.344;2023-02-22T04:16:39;30.45;;;19.63;;
34725;SDS011;20951;50.818;4.344;2023-02-22T04:19:05;29.38;;;19.35;;
34725;SDS011;20951;50.818;4.344;2023-02-22T04:21:31;29.95;;;19.35;;
34725;SDS011;20951;50.818;4.344;2023-02-22T04:23:58;29.17;;;18.38;;
34725;SDS011;20951;50.818;4.344;2023-02-22T04:26:24;25.48;;;17.23;;
34725;SDS011;20951;50.818;4.344;2023-02-22T04:28:50;23.77;;;16.92;;
34725;SDS011;20951;50.818;4.344;2023-02-22T04:31:16;22.05;;;15.82;;
34725;SDS011;20951;50.818;4.344;2023-02-22T04:33:42;24.38;;;14.52;;
34725;SDS011;20951;50.818;4.344;2023-02-22T04:36:08;23.25;;;15.75;;
34725;SDS011;20951;50.818;4.344;2023-02-22T04:38:34;22.10;;;15.02;;
34725;SDS011;20951;50.818;4.344;2023-02-22T04:41:01;19.95;;;14.40;;
34725;SDS011;20951;50.818;4.344;2023-02-22T04:43:27;23.33;;;14.48;;
34725;SDS011;20951;50.818;4.344;2023-02-22T04:45:52;21.58;;;14.43;;
34725;SDS011;20951;50.818;4.344;2023-02-22T04:48:18;21.98;;;14.55;;
34725;SDS011;20951;50.818;4.344;2023-02-22T04:50:44;20.20;;;13.75;;
34725;SDS011;20951;50.818;4.344;2023-02-22T04:53:11;21.83;;;14.35;;
34725;SDS011;20951;50.818;4.344;2023-02-22T04:55:37;20.27;;;14.18;;
34725;SDS011;20951;50.818;4.344;2023-02-22T04:58:03;21.02;;;13.98;;
34725;SDS011;20951;50.818;4.344;2023-02-22T05:00:30;20.08;;;14.38;;
34725;SDS011;20951;50.818;4.344;2023-02-22T05:02:56;20.50;;;13.90;;
34725;SDS011;20951;50.818;4.344;2023-02-22T05:05:22;20.52;;;14.50;;
34725;SDS011;20951;50.818;4.344;2023-02-22T05:07:48;20.23;;;14.02;;
34725;SDS011;20951;50.818;4.344;2023-02-22T05:10:14;19.88;;;13.70;;
34725;SDS011;20951;50.818;4.344;2023-02-22T05:12:41;21.10;;;14.52;;
34725;SDS011;20951;50.818;4.344;2023-02-22T05:15:07;19.33;;;13.90;;
34725;SDS011;20951;50.818;4.344;2023-02-22T05:17:34;19.67;;;13.68;;
34725;SDS011;20951;50.818;4.344;2023-02-22T05:20:01;19.70;;;13.95;;
34725;SDS011;20951;50.818;4.344;2023-02-22T05:22:28;20.25;;;14.07;;
34725;SDS011;20951;50.818;4.344;2023-02-22T05:24:54;19.58;;;13.45;;
34725;SDS011;20951;50.818;4.344;2023-02-22T05:27:20;18.92;;;13.40;;
34725;SDS011;20951;50.818;4.344;2023-02-22T05:29:46;18.00;;;13.25;;
34725;SDS011;20951;50.818;4.344;2023-02-22T05:32:12;21.50;;;13.85;;
34725;SDS011;20951;50.818;4.344;2023-02-22T05:34:38;17.90;;;13.00;;
34725;SDS011;20951;50.818;4.344;2023-02-22T05:37:04;16.60;;;12.05;;
34725;SDS011;20951;50.818;4.344;2023-02-22T05:39:31;16.50;;;12.35;;
34725;SDS011;20951;50.818;4.344;2023-02-22T05:41:57;18.02;;;12.48;;
34725;SDS011;20951;50.818;4.344;2023-02-22T05:44:23;18.88;;;12.05;;
34725;SDS011;20951;50.818;4.344;2023-02-22T05:46:49;21.30;;;11.98;;
34725;SDS011;20951;50.818;4.344;2023-02-22T05:49:15;17.85;;;12.65;;
34725;SDS011;20951;50.818;4.344;2023-02-22T05:51:41;19.48;;;13.10;;
34725;SDS011;20951;50.818;4.344;2023-02-22T05:54:07;19.77;;;12.27;;
34725;SDS011;20951;50.818;4.344;2023-02-22T05:56:33;19.13;;;11.55;;
34725;SDS011;20951;50.818;4.344;2023-02-22T05:59:00;20.67;;;11.35;;
34725;SDS011;20951;50.818;4.344;2023-02-22T06:01:26;18.55;;;12.05;;
34725;SDS011;20951;50.818;4.344;2023-02-22T06:03:52;18.55;;;11.75;;
34725;SDS011;20951;50.818;4.344;2023-02-22T06:06:18;17.98;;;11.77;;
34725;SDS011;20951;50.818;4.344;2023-02-22T06:08:44;17.33;;;11.65;;
34725;SDS011;20951;50.818;4.344;2023-02-22T06:11:11;17.88;;;11.43;;
34725;SDS011;20951;50.818;4.344;2023-02-22T06:13:37;22.17;;;11.90;;
34725;SDS011;20951;50.818;4.344;2023-02-22T06:16:04;18.70;;;11.55;;
34725;SDS011;20951;50.818;4.344;2023-02-22T06:18:31;18.15;;;11.68;;
34725;SDS011;20951;50.818;4.344;2023-02-22T06:20:57;20.23;;;12.48;;
34725;SDS011;20951;50.818;4.344;2023-02-22T06:23:24;18.05;;;11.95;;
34725;SDS011;20951;50.818;4.344;2023-02-22T06:25:51;17.23;;;11.82;;
34725;SDS011;20951;50.818;4.344;2023-02-22T06:28:17;18.85;;;11.50;;
34725;SDS011;20951;50.818;4.344;2023-02-22T06:30:43;20.35;;;12.40;;
34725;SDS011;20951;50.818;4.344;2023-02-22T06:33:09;17.50;;;11.63;;
34725;SDS011;20951;50.818;4.344;2023-02-22T06:35:35;21.17;;;12.45;;
34725;SDS011;20951;50.818;4.344;2023-02-22T06:38:01;19.02;;;12.05;;
34725;SDS011;20951;50.818;4.344;2023-02-22T06:40:27;18.92;;;12.07;;
34725;SDS011;20951;50.818;4.344;2023-02-22T06:42:54;18.48;;;11.82;;
34725;SDS011;20951;50.818;4.344;2023-02-22T06:45:20;20.13;;;12.20;;
34725;SDS011;20951;50.818;4.344;2023-02-22T06:47:46;21.33;;;12.55;;
34725;SDS011;20951;50.818;4.344;2023-02-22T06:52:52;21.10;;;13.13;;
34725;SDS011;20951;50.818;4.344;2023-02-22T06:55:23;20.55;;;12.73;;
34725;SDS011;20951;50.818;4.344;2023-02-22T06:57:51;21.50;;;12.23;;
34725;SDS011;20951;50.818;4.344;2023-02-22T07:00:18;19.80;;;12.88;;
34725;SDS011;20951;50.818;4.344;2023-02-22T07:02:45;23.77;;;12.23;;
34725;SDS011;20951;50.818;4.344;2023-02-22T07:05:15;21.83;;;12.25;;
34725;SDS011;20951;50.818;4.344;2023-02-22T07:07:43;22.23;;;12.68;;
34725;SDS011;20951;50.818;4.344;2023-02-22T07:10:15;19.65;;;12.13;;
34725;SDS011;20951;50.818;4.344;2023-02-22T07:12:49;22.05;;;13.02;;
34725;SDS011;20951;50.818;4.344;2023-02-22T07:15:18;21.10;;;12.82;;
34725;SDS011;20951;50.818;4.344;2023-02-22T07:17:46;21.48;;;13.18;;
34725;SDS011;20951;50.818;4.344;2023-02-22T07:20:12;19.35;;;12.50;;
34725;SDS011;20951;50.818;4.344;2023-02-22T07:22:38;22.13;;;12.82;;
34725;SDS011;20951;50.818;4.344;2023-02-22T07:25:05;19.80;;;12.55;;
34725;SDS011;20951;50.818;4.344;2023-02-22T07:27:36;22.08;;;12.80;;
34725;SDS011;20951;50.818;4.344;2023-02-22T07:30:04;23.70;;;14.18;;
34725;SDS011;20951;50.818;4.344;2023-02-22T07:32:32;23.70;;;12.60;;
34725;SDS011;20951;50.818;4.344;2023-02-22T07:34:58;20.05;;;12.60;;
34725;SDS011;20951;50.818;4.344;2023-02-22T07:37:27;19.23;;;12.82;;
34725;SDS011;20951;50.818;4.344;2023-02-22T07:39:53;21.33;;;12.70;;
34725;SDS011;20951;50.818;4.344;2023-02-22T07:42:19;20.13;;;12.98;;
34725;SDS011;20951;50.818;4.344;2023-02-22T07:44:45;21.13;;;12.50;;
34725;SDS011;20951;50.818;4.344;2023-02-22T07:47:11;23.33;;;12.82;;
34725;SDS011;20951;50.818;4.344;2023-02-22T07:49:37;20.40;;;12.88;;
34725;SDS011;20951;50.818;4.344;2023-02-22T07:52:03;21.67;;;13.35;;
34725;SDS011;20951;50.818;4.344;2023-02-22T07:54:31;21.95;;;13.10;;
34725;SDS011;20951;50.818;4.344;2023-02-22T07:56:57;26.52;;;13.73;;
34725;SDS011;20951;50.818;4.344;2023-02-22T07:59:23;22.35;;;12.90;;
34725;SDS011;20951;50.818;4.344;2023-02-22T08:01:49;25.52;;;13.30;;
34725;SDS011;20951;50.818;4.344;2023-02-22T08:04:15;23.05;;;13.73;;
34725;SDS011;20951;50.818;4.344;2023-02-22T08:06:41;18.48;;;12.43;;
34725;SDS011;20951;50.818;4.344;2023-02-22T08:09:10;24.25;;;13.60;;
34725;SDS011;20951;50.818;4.344;2023-02-22T08:11:36;24.27;;;13.35;;
34725;SDS011;20951;50.818;4.344;2023-02-22T08:14:03;20.25;;;12.70;;
34725;SDS011;20951;50.818;4.344;2023-02-22T08:16:29;22.55;;;13.50;;
34725;SDS011;20951;50.818;4.344;2023-02-22T08:18:55;27.58;;;13.93;;
34725;SDS011;20951;50.818;4.344;2023-02-22T08:21:21;23.30;;;13.40;;
34725;SDS011;20951;50.818;4.344;2023-02-22T08:23:49;20.00;;;13.60;;
34725;SDS011;20951;50.818;4.344;2023-02-22T08:26:18;23.80;;;13.27;;
34725;SDS011;20951;50.818;4.344;2023-02-22T08:28:44;21.92;;;12.93;;
34725;SDS011;20951;50.818;4.344;2023-02-22T08:31:10;25.00;;;12.85;;
34725;SDS011;20951;50.818;4.344;2023-02-22T08:33:36;22.45;;;12.85;;
34725;SDS011;20951;50.818;4.344;2023-02-22T08:36:02;23.02;;;13.55;;
34725;SDS011;20951;50.818;4.344;2023-02-22T08:38:30;21.83;;;13.00;;
34725;SDS011;20951;50.818;4.344;2023-02-22T08:40:58;25.45;;;14.20;;
34725;SDS011;20951;50.818;4.344;2023-02-22T08:43:24;21.00;;;12.88;;
34725;SDS011;20951;50.818;4.344;2023-02-22T08:45:50;22.70;;;13.45;;
34725;SDS011;20951;50.818;4.344;2023-02-22T08:48:16;19.70;;;13.23;;
34725;SDS011;20951;50.818;4.344;2023-02-22T08:50:43;22.00;;;14.20;;
34725;SDS011;20951;50.818;4.344;2023-02-22T08:53:10;25.85;;;14.63;;
34725;SDS011;20951;50.818;4.344;2023-02-22T08:55:37;25.90;;;13.93;;
34725;SDS011;20951;50.818;4.344;2023-02-22T08:58:05;23.85;;;14.32;;
34725;SDS011;20951;50.818;4.344;2023-02-22T09:00:33;22.90;;;14.48;;
34725;SDS011;20951;50.818;4.344;2023-02-22T09:03:04;20.65;;;14.45;;
34725;SDS011;20951;50.818;4.344;2023-02-22T09:05:33;26.33;;;16.20;;
34725;SDS011;20951;50.818;4.344;2023-02-22T09:07:59;23.85;;;16.02;;
34725;SDS011;20951;50.818;4.344;2023-02-22T09:10:27;26.60;;;16.67;;
34725;SDS011;20951;50.818;4.344;2023-02-22T09:12:55;25.13;;;17.02;;
34725;SDS011;20951;50.818;4.344;2023-02-22T09:15:22;28.95;;;17.25;;
34725;SDS011;20951;50.818;4.344;2023-02-22T09:17:50;26.48;;;17.27;;
34725;SDS011;20951;50.818;4.344;2023-02-22T09:20:17;27.88;;;17.42;;
34725;SDS011;20951;50.818;4.344;2023-02-22T09:22:45;26.00;;;16.75;;
34725;SDS011;20951;50.818;4.344;2023-02-22T09:25:11;24.45;;;17.17;;
34725;SDS011;20951;50.818;4.344;2023-02-22T09:27:38;25.42;;;16.73;;
34725;SDS011;20951;50.818;4.344;2023-02-22T09:30:07;27.30;;;16.70;;
34725;SDS011;20951;50.818;4.344;2023-02-22T09:32:40;25.90;;;17.57;;
34725;SDS011;20951;50.818;4.344;2023-02-22T09:35:07;26.73;;;18.30;;
34725;SDS011;20951;50.818;4.344;2023-02-22T09:37:33;24.85;;;16.25;;
34725;SDS011;20951;50.818;4.344;2023-02-22T09:39:59;26.67;;;17.98;;
34725;SDS011;20951;50.818;4.344;2023-02-22T09:42:27;29.77;;;18.20;;
34725;SDS011;20951;50.818;4.344;2023-02-22T09:45:20;25.17;;;16.98;;
34725;SDS011;20951;50.818;4.344;2023-02-22T09:47:54;28.85;;;18.42;;
34725;SDS011;20951;50.818;4.344;2023-02-22T09:50:24;28.13;;;18.75;;
34725;SDS011;20951;50.818;4.344;2023-02-22T09:55:46;27.92;;;17.48;;
34725;SDS011;20951;50.818;4.344;2023-02-22T10:01:06;26.05;;;18.52;;
34725;SDS011;20951;50.818;4.344;2023-02-22T10:03:57;27.25;;;18.05;;
34725;SDS011;20951;50.818;4.344;2023-02-22T10:06:35;30.75;;;19.50;;
34725;SDS011;20951;50.818;4.344;2023-02-22T10:09:07;29.80;;;19.50;;
34725;SDS011;20951;50.818;4.344;2023-02-22T10:17:03;29.38;;;18.77;;
34725;SDS011;20951;50.818;4.344;2023-02-22T10:19:55;33.72;;;19.50;;
34725;SDS011;20951;50.818;4.344;2023-02-22T10:22:55;30.13;;;19.25;;
34725;SDS011;20951;50.818;4.344;2023-02-22T10:25:29;28.27;;;19.08;;
34725;SDS011;20951;50.818;4.344;2023-02-22T10:28:01;30.40;;;19.38;;
34725;SDS011;20951;50.818;4.344;2023-02-22T10:30:54;31.08;;;19.83;;
34725;SDS011;20951;50.818;4.344;2023-02-22T10:33:35;32.55;;;21.15;;
34725;SDS011;20951;50.818;4.344;2023-02-22T10:36:14;30.05;;;20.80;;
34725;SDS011;20951;50.818;4.344;2023-02-22T10:38:54;29.70;;;20.00;;
34725;SDS011;20951;50.818;4.344;2023-02-22T10:41:32;29.88;;;21.13;;
34725;SDS011;20951;50.818;4.344;2023-02-22T10:44:02;29.10;;;21.38;;
34725;SDS011;20951;50.818;4.344;2023-02-22T10:46:29;28.88;;;20.55;;
34725;SDS011;20951;50.818;4.344;2023-02-22T10:48:59;26.45;;;20.63;;
34725;SDS011;20951;50.818;4.344;2023-02-22T10:51:31;30.20;;;21.85;;
34725;SDS011;20951;50.818;4.344;2023-02-22T10:56:52;29.73;;;21.52;;
34725;SDS011;20951;50.818;4.344;2023-02-22T10:59:26;32.20;;;23.92;;
34725;SDS011;20951;50.818;4.344;2023-02-22T11:01:53;29.50;;;21.77;;
34725;SDS011;20951;50.818;4.344;2023-02-22T11:04:19;29.70;;;22.65;;
34725;SDS011;20951;50.818;4.344;2023-02-22T11:06:47;28.90;;;22.98;;
34725;SDS011;20951;50.818;4.344;2023-02-22T11:09:41;31.42;;;22.55;;
34725;SDS011;20951;50.818;4.344;2023-02-22T11:12:24;30.23;;;22.55;;
34725;SDS011;20951;50.818;4.344;2023-02-22T11:14:51;29.13;;;22.38;;
34725;SDS011;20951;50.818;4.344;2023-02-22T11:17:27;30.83;;;22.30;;
34725;SDS011;20951;50.818;4.344;2023-02-22T11:19:55;30.08;;;23.00;;
34725;SDS011;20951;50.818;4.344;2023-02-22T11:22:27;32.53;;;22.73;;
34725;SDS011;20951;50.818;4.344;2023-02-22T11:25:02;31.73;;;23.38;;
34725;SDS011;20951;50.818;4.344;2023-02-22T11:30:25;30.80;;;23.83;;
34725;SDS011;20951;50.818;4.344;2023-02-22T11:38:36;32.50;;;23.67;;
34725;SDS011;20951;50.818;4.344;2023-02-22T11:43:34;32.20;;;23.73;;
34725;SDS011;20951;50.818;4.344;2023-02-22T11:46:04;32.03;;;25.05;;
34725;SDS011;20951;50.818;4.344;2023-02-22T11:48:38;31.90;;;24.75;;
34725;SDS011;20951;50.818;4.344;2023-02-22T11:56:21;35.28;;;25.52;;
34725;SDS011;20951;50.818;4.344;2023-02-22T11:59:07;36.28;;;25.35;;
34725;SDS011;20951;50.818;4.344;2023-02-22T12:02:02;31.70;;;24.73;;
34725;SDS011;20951;50.818;4.344;2023-02-22T12:04:52;38.40;;;26.42;;
34725;SDS011;20951;50.818;4.344;2023-02-22T12:15:46;31.75;;;25.70;;
34725;SDS011;20951;50.818;4.344;2023-02-22T12:20:58;34.13;;;26.90;;
34725;SDS011;20951;50.818;4.344;2023-02-22T12:26:01;38.30;;;29.27;;
34725;SDS011;20951;50.818;4.344;2023-02-22T12:28:43;36.92;;;28.67;;
34725;SDS011;20951;50.818;4.344;2023-02-22T12:31:48;37.67;;;28.73;;
34725;SDS011;20951;50.818;4.344;2023-02-22T12:36:47;36.88;;;30.27;;
34725;SDS011;20951;50.818;4.344;2023-02-22T12:42:01;40.60;;;31.52;;
34725;SDS011;20951;50.818;4.344;2023-02-22T12:44:38;39.00;;;30.80;;
34725;SDS011;20951;50.818;4.344;2023-02-22T12:47:06;39.42;;;30.98;;
34725;SDS011;20951;50.818;4.344;2023-02-22T12:50:02;40.35;;;30.55;;
34725;SDS011;20951;50.818;4.344;2023-02-22T12:52:52;41.35;;;31.02;;
34725;SDS011;20951;50.818;4.344;2023-02-22T12:55:30;40.20;;;30.92;;
34725;SDS011;20951;50.818;4.344;2023-02-22T12:58:26;41.78;;;31.50;;
34725;SDS011;20951;50.818;4.344;2023-02-22T13:01:13;39.55;;;30.48;;
34725;SDS011;20951;50.818;4.344;2023-02-22T13:03:44;42.10;;;30.83;;
34725;SDS011;20951;50.818;4.344;2023-02-22T13:06:19;44.35;;;32.63;;
34725;SDS011;20951;50.818;4.344;2023-02-22T13:09:03;40.60;;;31.73;;
34725;SDS011;20951;50.818;4.344;2023-02-22T13:22:47;39.47;;;31.85;;
34725;SDS011;20951;50.818;4.344;2023-02-22T13:25:23;40.25;;;31.98;;
34725;SDS011;20951;50.818;4.344;2023-02-22T13:50:19;43.83;;;35.45;;
34725;SDS011;20951;50.818;4.344;2023-02-22T13:52:53;46.83;;;35.67;;
34725;SDS011;20951;50.818;4.344;2023-02-22T13:55:28;45.42;;;35.03;;
34725;SDS011;20951;50.818;4.344;2023-02-22T13:58:05;44.38;;;34.97;;
34725;SDS011;20951;50.818;4.344;2023-02-22T14:03:31;51.75;;;37.65;;
34725;SDS011;20951;50.818;4.344;2023-02-22T14:06:09;53.03;;;40.13;;
34725;SDS011;20951;50.818;4.344;2023-02-22T14:08:59;52.40;;;40.25;;
34725;SDS011;20951;50.818;4.344;2023-02-22T14:17:14;56.28;;;40.97;;
34725;SDS011;20951;50.818;4.344;2023-02-22T14:20:25;55.22;;;43.05;;
34725;SDS011;20951;50.818;4.344;2023-02-22T14:25:56;55.63;;;43.45;;
34725;SDS011;20951;50.818;4.344;2023-02-22T14:31:21;55.78;;;42.15;;
34725;SDS011;20951;50.818;4.344;2023-02-22T14:33:55;54.65;;;42.55;;
34725;SDS011;20951;50.818;4.344;2023-02-22T14:39:24;60.17;;;46.60;;
34725;SDS011;20951;50.818;4.344;2023-02-22T14:44:42;62.70;;;45.42;;
34725;SDS011;20951;50.818;4.344;2023-02-22T14:47:14;59.55;;;45.35;;
34725;SDS011;20951;50.818;4.344;2023-02-22T14:49:47;57.65;;;44.97;;
34725;SDS011;20951;50.818;4.344;2023-02-22T14:52:27;60.45;;;46.00;;
34725;SDS011;20951;50.818;4.344;2023-02-22T14:57:29;63.05;;;46.03;;
34725;SDS011;20951;50.818;4.344;2023-02-22T15:00:11;61.08;;;45.70;;
34725;SDS011;20951;50.818;4.344;2023-02-22T15:02:55;63.92;;;45.25;;
34725;SDS011;20951;50.818;4.344;2023-02-22T15:05:45;59.83;;;45.05;;
34725;SDS011;20951;50.818;4.344;2023-02-22T15:08:30;61.30;;;45.05;;
34725;SDS011;20951;50.818;4.344;2023-02-22T15:11:27;60.35;;;44.90;;
34725;SDS011;20951;50.818;4.344;2023-02-22T15:14:13;67.10;;;46.40;;
34725;SDS011;20951;50.818;4.344;2023-02-22T15:17:18;62.97;;;45.60;;
34725;SDS011;20951;50.818;4.344;2023-02-22T15:20:03;61.70;;;47.47;;
34725;SDS011;20951;50.818;4.344;2023-02-22T15:22:46;64.20;;;45.90;;
34725;SDS011;20951;50.818;4.344;2023-02-22T15:25:29;64.38;;;44.85;;
34725;SDS011;20951;50.818;4.344;2023-02-22T15:28:11;56.38;;;41.60;;
34725;SDS011;20951;50.818;4.344;2023-02-22T15:34:00;57.55;;;40.42;;
34725;SDS011;20951;50.818;4.344;2023-02-22T15:37:21;58.60;;;40.70;;
34725;SDS011;20951;50.818;4.344;2023-02-22T15:40:10;62.08;;;42.28;;
34725;SDS011;20951;50.818;4.344;2023-02-22T15:42:48;65.72;;;45.38;;
34725;SDS011;20951;50.818;4.344;2023-02-22T15:45:24;66.68;;;43.35;;
34725;SDS011;20951;50.818;4.344;2023-02-22T15:47:54;70.25;;;43.92;;
34725;SDS011;20951;50.818;4.344;2023-02-22T15:50:24;64.70;;;41.92;;
34725;SDS011;20951;50.818;4.344;2023-02-22T15:58:11;71.10;;;44.03;;
34725;SDS011;20951;50.818;4.344;2023-02-22T16:01:00;71.32;;;44.80;;
34725;SDS011;20951;50.818;4.344;2023-02-22T16:06:13;72.18;;;45.63;;
34725;SDS011;20951;50.818;4.344;2023-02-22T16:09:00;70.70;;;43.70;;
34725;SDS011;20951;50.818;4.344;2023-02-22T16:11:36;70.00;;;44.05;;
34725;SDS011;20951;50.818;4.344;2023-02-22T16:14:24;76.47;;;45.55;;
34725;SDS011;20951;50.818;4.344;2023-02-22T16:19:52;74.80;;;46.08;;
34725;SDS011;20951;50.818;4.344;2023-02-22T16:22:31;73.57;;;47.20;;
34725;SDS011;20951;50.818;4.344;2023-02-22T16:32:45;77.95;;;49.13;;
34725;SDS011;20951;50.818;4.344;2023-02-22T16:35:14;78.07;;;49.03;;
34725;SDS011;20951;50.818;4.344;2023-02-22T16:37:48;82.68;;;50.08;;
34725;SDS011;20951;50.818;4.344;2023-02-22T16:40:37;84.82;;;50.55;;
34725;SDS011;20951;50.818;4.344;2023-02-22T16:43:19;89.82;;;51.95;;
34725;SDS011;20951;50.818;4.344;2023-02-22T16:45:48;88.47;;;52.17;;
34725;SDS011;20951;50.818;4.344;2023-02-22T16:48:24;85.57;;;51.17;;
34725;SDS011;20951;50.818;4.344;2023-02-22T16:50:54;80.38;;;49.22;;
34725;SDS011;20951;50.818;4.344;2023-02-22T16:53:26;81.47;;;49.42;;
34725;SDS011;20951;50.818;4.344;2023-02-22T16:55:59;83.82;;;51.05;;
34725;SDS011;20951;50.818;4.344;2023-02-22T16:58:33;85.95;;;51.42;;
34725;SDS011;20951;50.818;4.344;2023-02-22T17:01:03;91.72;;;51.65;;
34725;SDS011;20951;50.818;4.344;2023-02-22T17:03:31;94.95;;;53.50;;
34725;SDS011;20951;50.818;4.344;2023-02-22T17:05:59;90.65;;;54.25;;
34725;SDS011;20951;50.818;4.344;2023-02-22T17:08:28;91.75;;;53.35;;
34725;SDS011;20951;50.818;4.344;2023-02-22T17:10:56;89.60;;;52.28;;
34725;SDS011;20951;50.818;4.344;2023-02-22T17:13:25;93.40;;;54.15;;
34725;SDS011;20951;50.818;4.344;2023-02-22T17:15:54;95.55;;;53.75;;
34725;SDS011;20951;50.818;4.344;2023-02-22T17:18:23;93.03;;;54.50;;
34725;SDS011;20951;50.818;4.344;2023-02-22T17:20:52;90.82;;;53.38;;
34725;SDS011;20951;50.818;4.344;2023-02-22T17:23:20;95.60;;;54.58;;
34725;SDS011;20951;50.818;4.344;2023-02-22T17:25:50;93.95;;;56.30;;
34725;SDS011;20951;50.818;4.344;2023-02-22T17:28:19;100.95;;;56.60;;
34725;SDS011;20951;50.818;4.344;2023-02-22T17:30:49;90.75;;;53.63;;
34725;SDS011;20951;50.818;4.344;2023-02-22T17:33:18;96.60;;;53.38;;